Orchards, Washington
Current Conditions -  °F | °C
As of 2:53 AM on Thursday 27 Nov 2014 (Local Time) from KVUO Reporting Station
Light Rain Light Rain  
Wind Chill: 58°   Ceiling: 5000
Heat Index: 58°   Visibility: 10mi
Dew Point: 47°   Wind: 8mph
Humidity: 67%   Direction: 110°ESE
Pressure: 29.97"   Gusts: NA
Location:  45.6907°N, 122.574°W
Report Text: KVUO 271053Z AUTO 11007KT 10SM -RA OVC050 14/08 A2997 RMK AO2 RAB21E30B50 SLP147 P0000 T01440083
Loading
Personal Weather Stations






























Interactive Weather Map New forecast layout! Learn more

10-Day Weather Forecast

Advertisements
Track Severe Weather on mobile